Terminal Aerodrome Forecast
Issued by NWS Austin/San Antonio, TX

Home | Current Version | Previous Version | Text Only | Print | Product List | Glossary On
Versions: 1 2 3 4 5 6 7 8 9 10 11 12 13 14 15 16 17 18 19 20 21 22
000
FTUS44 KEWX 252320
TAFAUS
TAF
KAUS 252320Z 2600/2706 23008KT P6SM SKC
     FM260900 20004KT 3SM BR OVC010
     FM261500 18005KT P6SM OVC020
     FM262100 16010KT P6SM OVC040=

USA.gov is the U.S. government's official web portal to all federal, state and local government web resources and services.